Time;durP1;ratioP1;P1;durP2;ratioP2;P2;SDS_P1;SDS_P2;PMS_P1;PMS_P2;Temp;Humidity;BMP_temperature;BMP_pressure;BME280_temperature;BME280_humidity;BME280_pressure;Samples;Min_cycle;Max_cycle;Signal;HPM_P1;HPM_P2
2022/07/31 00:01:03;;;;;;;11.05;9.50;;;;;;;;;;4955286;29;20574;-74
2022/07/31 00:03:31;;;;;;;10.40;9.30;;;;;;;;;;4948131;28;20214;-74
2022/07/31 00:06:00;;;;;;;11.07;10.07;;;;;;;;;;4954182;28;20272;-74
2022/07/31 00:08:28;;;;;;;10.88;9.88;;;;;;;;;;4956150;28;20605;-74
2022/07/31 00:10:56;;;;;;;13.13;10.90;;;;;;;;;;4956073;28;20707;-74
2022/07/31 00:13:25;;;;;;;12.02;10.68;;;;;;;;;;4950724;28;20210;-74
2022/07/31 00:16:15;;;;;;;11.07;10.13;;;;;;;;;;4955177;28;20214;-74
2022/07/31 00:18:44;;;;;;;11.20;10.10;;;;;;;;;;4955182;29;20234;-74
2022/07/31 00:21:13;;;;;;;11.27;10.25;;;;;;;;;;4952987;28;20216;-74
2022/07/31 00:23:41;;;;;;;10.93;9.93;;;;;;;;;;4955683;28;20214;-74
2022/07/31 00:26:09;;;;;;;10.35;9.35;;;;;;;;;;4952704;28;20207;-74
2022/07/31 00:28:38;;;;;;;10.95;9.88;;;;;;;;;;4949184;28;20707;-74
2022/07/31 00:31:06;;;;;;;10.90;9.80;;;;;;;;;;4956013;28;20260;-73
2022/07/31 00:33:36;;;;;;;10.32;9.32;;;;;;;;;;4954327;28;20207;-73
2022/07/31 00:36:05;;;;;;;11.32;10.27;;;;;;;;;;4955477;28;20217;-74
2022/07/31 00:38:34;;;;;;;11.10;10.00;;;;;;;;;;4954147;28;20707;-74
2022/07/31 00:41:03;;;;;;;11.57;10.40;;;;;;;;;;4949825;28;20203;-74
2022/07/31 00:43:31;;;;;;;11.40;10.30;;;;;;;;;;4955543;28;20685;-73
2022/07/31 00:46:00;;;;;;;11.48;10.38;;;;;;;;;;4954760;28;20210;-74
2022/07/31 00:48:29;;;;;;;11.30;10.10;;;;;;;;;;4949488;29;20226;-74
2022/07/31 00:50:59;;;;;;;12.07;10.90;;;;;;;;;;4945269;29;20238;-74
2022/07/31 00:53:28;;;;;;;11.88;10.80;;;;;;;;;;4947095;28;20215;-73
2022/07/31 00:55:57;;;;;;;12.10;11.00;;;;;;;;;;4950491;29;20223;-73
2022/07/31 00:58:25;;;;;;;11.43;10.43;;;;;;;;;;4952059;28;20718;-74
2022/07/31 01:00:54;;;;;;;12.70;11.43;;;;;;;;;;4951446;28;20218;-73
2022/07/31 01:03:23;;;;;;;12.07;10.93;;;;;;;;;;4935976;29;20689;-73
2022/07/31 01:05:51;;;;;;;12.07;11.00;;;;;;;;;;4938663;29;20202;-74
2022/07/31 01:08:21;;;;;;;12.05;10.82;;;;;;;;;;4944987;28;20289;-73
2022/07/31 01:10:52;;;;;;;11.27;10.20;;;;;;;;;;4937248;29;20301;-74
2022/07/31 01:13:23;;;;;;;12.10;11.00;;;;;;;;;;4936035;29;20211;-74
2022/07/31 01:15:52;;;;;;;12.68;10.80;;;;;;;;;;4935484;29;20207;-74
2022/07/31 01:18:24;;;;;;;12.00;10.88;;;;;;;;;;4948133;29;20233;-74
2022/07/31 01:20:56;;;;;;;12.20;10.93;;;;;;;;;;4941880;28;20211;-74
2022/07/31 01:23:42;;;;;;;13.07;11.73;;;;;;;;;;4951406;28;20343;-73
2022/07/31 01:26:32;;;;;;;13.40;12.05;;;;;;;;;;4937564;29;20215;-73
2022/07/31 01:29:08;;;;;;;11.82;10.85;;;;;;;;;;4947797;29;20206;-74
2022/07/31 01:31:40;;;;;;;12.63;11.43;;;;;;;;;;4954656;28;20237;-73
2022/07/31 01:34:11;;;;;;;12.83;11.53;;;;;;;;;;4949905;28;20214;-74
2022/07/31 01:36:42;;;;;;;13.13;11.93;;;;;;;;;;4935801;29;20222;-74
2022/07/31 01:39:14;;;;;;;12.80;11.53;;;;;;;;;;4948898;29;20210;-74
2022/07/31 01:41:46;;;;;;;11.73;10.83;;;;;;;;;;4951372;28;20206;-74
2022/07/31 01:44:18;;;;;;;12.20;11.00;;;;;;;;;;4954395;28;20214;-73
2022/07/31 01:46:47;;;;;;;12.70;11.43;;;;;;;;;;4954311;28;20214;-74
2022/07/31 01:49:17;;;;;;;12.80;11.60;;;;;;;;;;4940486;29;20203;-74
2022/07/31 01:51:48;;;;;;;13.37;12.07;;;;;;;;;;4947925;29;20332;-74
2022/07/31 01:54:20;;;;;;;12.97;11.87;;;;;;;;;;4953182;28;20755;-73
2022/07/31 01:56:50;;;;;;;14.83;13.40;;;;;;;;;;4954571;28;20246;-73
2022/07/31 01:59:20;;;;;;;13.97;12.33;;;;;;;;;;4949030;28;20203;-74
2022/07/31 02:01:52;;;;;;;13.00;11.80;;;;;;;;;;4949648;28;20203;-74
2022/07/31 02:04:21;;;;;;;13.77;12.57;;;;;;;;;;4952146;28;20214;-74
2022/07/31 02:06:50;;;;;;;15.37;14.07;;;;;;;;;;4950370;28;20210;-74
2022/07/31 02:09:19;;;;;;;14.80;13.40;;;;;;;;;;4952795;28;20226;-74
2022/07/31 02:11:49;;;;;;;16.10;14.40;;;;;;;;;;4942747;29;20226;-74
2022/07/31 02:14:24;;;;;;;15.53;14.13;;;;;;;;;;4942910;28;20266;-73
2022/07/31 02:16:52;;;;;;;16.50;14.80;;;;;;;;;;4934018;29;20207;-74
2022/07/31 02:19:22;;;;;;;16.57;14.97;;;;;;;;;;4951998;28;20571;-74
2022/07/31 02:21:54;;;;;;;17.13;15.47;;;;;;;;;;4942110;28;20214;-74
2022/07/31 02:24:23;;;;;;;17.80;16.20;;;;;;;;;;4950680;28;20238;-74
2022/07/31 02:26:52;;;;;;;16.27;14.87;;;;;;;;;;4954992;28;20659;-74
2022/07/31 02:29:21;;;;;;;16.67;15.20;;;;;;;;;;4953849;28;20635;-74
2022/07/31 02:31:54;;;;;;;16.47;15.17;;;;;;;;;;4954707;28;20249;-74
2022/07/31 02:34:37;;;;;;;16.07;14.63;;;;;;;;;;4942783;28;20222;-74
2022/07/31 02:37:05;;;;;;;16.10;14.50;;;;;;;;;;4940327;29;20608;-74
2022/07/31 02:39:35;;;;;;;16.20;14.60;;;;;;;;;;4955626;28;20579;-74
2022/07/31 02:42:04;;;;;;;14.73;13.23;;;;;;;;;;4955346;28;20207;-74
2022/07/31 02:44:33;;;;;;;13.30;12.20;;;;;;;;;;4944557;28;20206;-74
2022/07/31 02:47:04;;;;;;;14.03;12.70;;;;;;;;;;4936432;29;20229;-74
2022/07/31 02:49:33;;;;;;;14.13;12.83;;;;;;;;;;4947939;29;20202;-74
2022/07/31 02:52:03;;;;;;;15.00;13.43;;;;;;;;;;4954587;28;20226;-74
2022/07/31 02:54:32;;;;;;;14.87;13.57;;;;;;;;;;4952377;28;20262;-74
2022/07/31 02:57:02;;;;;;;14.00;12.77;;;;;;;;;;4952077;28;20227;-74
2022/07/31 02:59:31;;;;;;;14.83;13.50;;;;;;;;;;4936013;29;20213;-74
2022/07/31 03:02:00;;;;;;;14.30;12.80;;;;;;;;;;4948850;29;20195;-74
2022/07/31 03:04:30;;;;;;;14.70;13.40;;;;;;;;;;4953306;28;20210;-74
2022/07/31 03:06:59;;;;;;;14.03;12.60;;;;;;;;;;4951604;28;20230;-74
2022/07/31 03:09:29;;;;;;;15.23;13.77;;;;;;;;;;4944276;28;20207;-74
2022/07/31 03:11:58;;;;;;;14.87;13.33;;;;;;;;;;4936524;29;20603;-74
2022/07/31 03:14:33;;;;;;;15.20;13.87;;;;;;;;;;4949462;29;20207;-74
2022/07/31 03:17:02;;;;;;;16.27;14.67;;;;;;;;;;4958483;28;20726;-74
2022/07/31 03:19:32;;;;;;;15.33;13.93;;;;;;;;;;4953027;28;20206;-74
2022/07/31 03:22:01;;;;;;;13.97;12.73;;;;;;;;;;4952055;28;20207;-74
2022/07/31 03:24:30;;;;;;;17.20;15.33;;;;;;;;;;4959851;28;20217;-74
2022/07/31 03:27:00;;;;;;;16.03;14.53;;;;;;;;;;4961094;28;20293;-74
2022/07/31 03:29:37;;;;;;;15.57;14.10;;;;;;;;;;4957533;28;20237;-74
2022/07/31 03:32:10;;;;;;;14.93;13.43;;;;;;;;;;4952180;28;20227;-74
2022/07/31 03:34:40;;;;;;;15.23;13.57;;;;;;;;;;4942217;29;20582;-74
2022/07/31 03:37:09;;;;;;;13.57;12.27;;;;;;;;;;4942028;29;20230;-74
2022/07/31 03:39:38;;;;;;;14.90;13.43;;;;;;;;;;4941876;29;20664;-74
2022/07/31 03:42:07;;;;;;;14.70;13.20;;;;;;;;;;4950087;28;20207;-74
2022/07/31 03:44:47;;;;;;;15.03;12.87;;;;;;;;;;4961667;28;20194;-74
2022/07/31 03:47:15;;;;;;;15.40;14.07;;;;;;;;;;4961370;28;20226;-74
2022/07/31 03:49:46;;;;;;;15.53;14.23;;;;;;;;;;4955007;28;20210;-74
2022/07/31 03:52:14;;;;;;;16.13;14.73;;;;;;;;;;4958397;28;20238;-74
2022/07/31 03:54:43;;;;;;;16.27;14.73;;;;;;;;;;4960702;28;20206;-74
2022/07/31 03:57:12;;;;;;;17.83;15.97;;;;;;;;;;4961224;28;20718;-74
2022/07/31 03:59:41;;;;;;;16.60;15.07;;;;;;;;;;4950731;28;20664;-74
2022/07/31 04:02:16;;;;;;;17.37;15.87;;;;;;;;;;4949271;29;20198;-74
2022/07/31 04:04:47;;;;;;;19.17;17.47;;;;;;;;;;4960643;28;20210;-74
2022/07/31 04:07:16;;;;;;;17.50;15.70;;;;;;;;;;4949813;28;20227;-73
2022/07/31 04:09:44;;;;;;;18.00;16.30;;;;;;;;;;4952069;28;20283;-74
2022/07/31 04:12:13;;;;;;;19.73;17.40;;;;;;;;;;4960669;28;20227;-74
2022/07/31 04:14:41;;;;;;;17.20;15.70;;;;;;;;;;4961243;28;20210;-74
2022/07/31 04:17:09;;;;;;;18.77;16.73;;;;;;;;;;4958724;28;20253;-74
2022/07/31 04:19:38;;;;;;;19.00;17.40;;;;;;;;;;4949216;28;20210;-73
2022/07/31 04:22:08;;;;;;;20.30;18.20;;;;;;;;;;4946873;28;20195;-74
2022/07/31 04:24:36;;;;;;;19.27;17.47;;;;;;;;;;4947305;29;20210;-74
2022/07/31 04:27:05;;;;;;;20.73;18.57;;;;;;;;;;4961191;28;20277;-73
2022/07/31 04:29:40;;;;;;;20.50;18.50;;;;;;;;;;4949175;28;20207;-74
2022/07/31 04:32:08;;;;;;;22.37;20.03;;;;;;;;;;4944144;29;20226;-74
2022/07/31 04:34:37;;;;;;;21.63;19.47;;;;;;;;;;4950578;28;20218;-74
2022/07/31 04:37:05;;;;;;;21.37;19.10;;;;;;;;;;4938426;29;20230;-73
2022/07/31 04:39:35;;;;;;;22.57;20.17;;;;;;;;;;4944050;29;20206;-74
2022/07/31 04:42:04;;;;;;;23.07;20.77;;;;;;;;;;4957445;28;20225;-74
2022/07/31 04:44:38;;;;;;;24.00;21.73;;;;;;;;;;4956341;28;20210;-74
2022/07/31 04:47:07;;;;;;;25.50;22.80;;;;;;;;;;4957662;28;20230;-74
2022/07/31 04:49:35;;;;;;;26.87;23.97;;;;;;;;;;4950171;28;20548;-74
2022/07/31 04:52:04;;;;;;;26.97;24.30;;;;;;;;;;4947803;29;20210;-74
2022/07/31 04:54:35;;;;;;;26.80;24.20;;;;;;;;;;4954829;28;20287;-74
2022/07/31 04:57:03;;;;;;;28.20;25.20;;;;;;;;;;4948225;29;20222;-74
2022/07/31 04:59:31;;;;;;;28.10;25.50;;;;;;;;;;4946467;28;20207;-74
2022/07/31 05:02:20;;;;;;;29.50;26.57;;;;;;;;;;4943904;29;20258;-74
2022/07/31 05:04:48;;;;;;;28.27;25.50;;;;;;;;;;4955444;28;20207;-74
2022/07/31 05:07:24;;;;;;;28.03;25.37;;;;;;;;;;4954210;28;20225;-74
2022/07/31 05:09:58;;;;;;;28.37;25.57;;;;;;;;;;4953466;28;20207;-74
2022/07/31 05:12:26;;;;;;;28.33;25.60;;;;;;;;;;4954805;28;20207;-73
2022/07/31 05:14:55;;;;;;;28.87;26.10;;;;;;;;;;4952476;28;20237;-74
2022/07/31 05:17:23;;;;;;;28.17;25.63;;;;;;;;;;4957376;28;20230;-73
2022/07/31 05:19:52;;;;;;;27.37;24.70;;;;;;;;;;4952371;28;20652;-74
2022/07/31 05:22:20;;;;;;;26.63;24.13;;;;;;;;;;4951238;28;20610;-73
2022/07/31 05:24:49;;;;;;;27.80;25.15;;;;;;;;;;4939716;29;20206;-74
2022/07/31 05:27:18;;;;;;;28.23;25.33;;;;;;;;;;4956920;28;20302;-73
2022/07/31 05:29:47;;;;;;;28.65;25.55;;;;;;;;;;4947775;28;20293;-74
2022/07/31 05:32:16;;;;;;;28.95;26.13;;;;;;;;;;4956340;28;20203;-73
2022/07/31 05:34:45;;;;;;;26.13;23.57;;;;;;;;;;4955072;28;20198;-74
2022/07/31 05:37:13;;;;;;;25.60;22.98;;;;;;;;;;4954113;28;20229;-74
2022/07/31 05:39:42;;;;;;;24.73;22.27;;;;;;;;;;4937922;29;20222;-73
2022/07/31 05:42:10;;;;;;;23.38;21.27;;;;;;;;;;4940902;29;20211;-73
2022/07/31 05:44:40;;;;;;;23.27;20.25;;;;;;;;;;4956209;28;20211;-73
2022/07/31 05:47:09;;;;;;;22.48;20.35;;;;;;;;;;4952082;28;20235;-74
2022/07/31 05:49:37;;;;;;;22.17;20.02;;;;;;;;;;4946895;29;20206;-73
2022/07/31 05:52:06;;;;;;;20.48;18.58;;;;;;;;;;4955598;28;20222;-74
2022/07/31 05:54:34;;;;;;;19.98;18.08;;;;;;;;;;4956080;28;20692;-73
2022/07/31 05:57:03;;;;;;;19.33;17.05;;;;;;;;;;4956410;28;20230;-73
2022/07/31 05:59:34;;;;;;;18.63;16.83;;;;;;;;;;4938417;29;20219;-73
2022/07/31 06:02:06;;;;;;;17.80;15.90;;;;;;;;;;4939009;29;20215;-73
2022/07/31 06:04:35;;;;;;;17.50;15.80;;;;;;;;;;4956266;28;20663;-73
2022/07/31 06:07:04;;;;;;;16.63;14.85;;;;;;;;;;4953078;28;20235;-74
2022/07/31 06:09:33;;;;;;;14.98;13.50;;;;;;;;;;4955470;28;20203;-73
2022/07/31 06:12:02;;;;;;;15.15;13.65;;;;;;;;;;4955315;28;20580;-73
2022/07/31 06:14:31;;;;;;;14.98;13.48;;;;;;;;;;4956105;28;20230;-73
2022/07/31 06:17:01;;;;;;;13.85;12.45;;;;;;;;;;4955696;28;20231;-73
2022/07/31 06:19:34;;;;;;;13.68;12.38;;;;;;;;;;4947428;28;20642;-74
2022/07/31 06:22:02;;;;;;;13.13;11.93;;;;;;;;;;4948064;29;20217;-73
2022/07/31 06:24:32;;;;;;;12.65;11.52;;;;;;;;;;4937691;29;20266;-73
2022/07/31 06:27:01;;;;;;;13.40;12.10;;;;;;;;;;4953167;28;20234;-73
2022/07/31 06:29:31;;;;;;;13.43;12.10;;;;;;;;;;4937611;29;20207;-73
2022/07/31 06:32:09;;;;;;;12.00;10.63;;;;;;;;;;4939290;28;20210;-73
2022/07/31 06:34:39;;;;;;;10.75;9.60;;;;;;;;;;4955756;28;20642;-73
2022/07/31 06:37:07;;;;;;;10.20;9.15;;;;;;;;;;4951543;28;20318;-74
2022/07/31 06:39:36;;;;;;;11.93;9.38;;;;;;;;;;4940654;29;20211;-73
2022/07/31 06:42:24;;;;;;;9.18;8.27;;;;;;;;;;4953613;28;20355;-74
2022/07/31 06:44:53;;;;;;;8.13;7.32;;;;;;;;;;4941674;29;20698;-74
2022/07/31 06:47:22;;;;;;;9.65;6.82;;;;;;;;;;4950297;29;20223;-73
2022/07/31 06:49:52;;;;;;;7.72;6.78;;;;;;;;;;4953690;28;20215;-73
2022/07/31 06:52:21;;;;;;;10.68;6.25;;;;;;;;;;4947834;28;20680;-74
2022/07/31 06:54:49;;;;;;;7.18;6.07;;;;;;;;;;4955522;28;20773;-74
2022/07/31 06:57:18;;;;;;;11.93;6.22;;;;;;;;;;4951268;28;20230;-74
2022/07/31 06:59:49;;;;;;;6.93;5.38;;;;;;;;;;4952412;28;20202;-74
2022/07/31 07:02:18;;;;;;;8.55;5.32;;;;;;;;;;4949046;28;20203;-74
2022/07/31 07:04:46;;;;;;;8.25;5.15;;;;;;;;;;4958433;28;20207;-73
2022/07/31 07:07:37;;;;;;;6.57;5.03;;;;;;;;;;4957323;28;20277;-74
2022/07/31 07:10:06;;;;;;;5.75;4.80;;;;;;;;;;4950993;28;20202;-74
2022/07/31 07:12:34;;;;;;;7.15;5.10;;;;;;;;;;4949891;28;20210;-73
2022/07/31 07:15:03;;;;;;;5.70;4.78;;;;;;;;;;4943623;29;20289;-73
2022/07/31 07:17:31;;;;;;;6.68;4.40;;;;;;;;;;4940288;29;20236;-74
2022/07/31 07:20:00;;;;;;;7.10;4.10;;;;;;;;;;4949762;28;20619;-74
2022/07/31 07:22:29;;;;;;;5.93;4.20;;;;;;;;;;4954933;28;20652;-73
2022/07/31 07:25:01;;;;;;;6.43;4.25;;;;;;;;;;4952513;28;20234;-73
2022/07/31 07:27:29;;;;;;;5.63;4.47;;;;;;;;;;4946538;28;20246;-73
2022/07/31 07:29:58;;;;;;;5.93;4.03;;;;;;;;;;4940760;29;20692;-73
2022/07/31 07:32:26;;;;;;;5.95;4.18;;;;;;;;;;4944951;28;20206;-74
2022/07/31 07:34:55;;;;;;;6.25;3.88;;;;;;;;;;4947755;28;20222;-74
2022/07/31 07:37:29;;;;;;;7.35;3.92;;;;;;;;;;4952575;28;20230;-74
2022/07/31 07:39:57;;;;;;;6.63;3.90;;;;;;;;;;4949308;28;20206;-73
2022/07/31 07:42:33;;;;;;;4.90;3.78;;;;;;;;;;4942108;29;20257;-73
2022/07/31 07:45:02;;;;;;;6.38;3.58;;;;;;;;;;4955015;28;20656;-73
2022/07/31 07:47:36;;;;;;;5.07;3.60;;;;;;;;;;4952723;28;20225;-73
2022/07/31 07:50:25;;;;;;;5.20;3.50;;;;;;;;;;4952496;28;20290;-73
2022/07/31 07:52:56;;;;;;;4.30;3.22;;;;;;;;;;4949865;28;20250;-73
2022/07/31 07:55:25;;;;;;;4.47;3.03;;;;;;;;;;4952648;28;20231;-73
2022/07/31 07:57:55;;;;;;;5.47;3.20;;;;;;;;;;4942611;28;20612;-73
2022/07/31 08:00:23;;;;;;;6.93;3.20;;;;;;;;;;4945740;28;20676;-73
2022/07/31 08:02:53;;;;;;;3.67;3.38;;;;;;;;;;4944386;28;20203;-73
2022/07/31 08:05:42;;;;;;;5.75;3.22;;;;;;;;;;4953986;28;20206;-74
2022/07/31 08:08:10;;;;;;;5.15;3.00;;;;;;;;;;4950327;28;20823;-73
2022/07/31 08:10:39;;;;;;;5.95;3.10;;;;;;;;;;4955419;28;20676;-74
2022/07/31 08:13:10;;;;;;;3.95;3.10;;;;;;;;;;4958093;28;20221;-73
2022/07/31 08:15:38;;;;;;;4.20;2.95;;;;;;;;;;4955608;28;20227;-73
2022/07/31 08:18:07;;;;;;;3.58;3.17;;;;;;;;;;4948131;28;20222;-74
2022/07/31 08:20:37;;;;;;;4.78;3.40;;;;;;;;;;4949096;28;20211;-73
2022/07/31 08:23:05;;;;;;;4.20;2.63;;;;;;;;;;4944316;29;20548;-73
2022/07/31 08:25:34;;;;;;;7.50;3.15;;;;;;;;;;4957145;29;20682;-74
2022/07/31 08:28:02;;;;;;;6.35;3.10;;;;;;;;;;4947255;28;20223;-73
2022/07/31 08:30:34;;;;;;;3.00;2.70;;;;;;;;;;4947943;28;20210;-74
2022/07/31 08:33:02;;;;;;;3.30;2.95;;;;;;;;;;4945697;28;20203;-74
2022/07/31 08:35:31;;;;;;;4.60;2.72;;;;;;;;;;4954221;28;20294;-73
2022/07/31 08:38:00;;;;;;;2.88;2.30;;;;;;;;;;4952310;28;20226;-73
2022/07/31 08:40:34;;;;;;;3.83;2.90;;;;;;;;;;4950623;28;20302;-73
2022/07/31 08:43:10;;;;;;;5.18;3.00;;;;;;;;;;4956281;29;20562;-73
2022/07/31 08:46:02;;;;;;;4.63;2.70;;;;;;;;;;4955499;28;20266;-73
2022/07/31 08:48:32;;;;;;;4.90;3.10;;;;;;;;;;4946692;28;20222;-73
2022/07/31 08:51:03;;;;;;;2.70;2.50;;;;;;;;;;4948012;28;20215;-74
2022/07/31 08:53:31;;;;;;;3.13;2.45;;;;;;;;;;4951303;28;20261;-74
2022/07/31 08:56:01;;;;;;;4.07;2.40;;;;;;;;;;4953786;28;20234;-73
2022/07/31 08:58:44;;;;;;;4.65;2.65;;;;;;;;;;4953167;29;20306;-73
2022/07/31 09:01:14;;;;;;;4.40;2.40;;;;;;;;;;4949724;28;20221;-73
2022/07/31 09:03:43;;;;;;;3.85;2.70;;;;;;;;;;4944427;28;20293;-73
2022/07/31 09:06:11;;;;;;;3.50;2.47;;;;;;;;;;4946534;28;20213;-73
2022/07/31 09:08:40;;;;;;;3.90;2.20;;;;;;;;;;4947006;28;20309;-73
2022/07/31 09:11:10;;;;;;;3.28;2.50;;;;;;;;;;4942332;29;20211;-73
2022/07/31 09:13:39;;;;;;;5.30;2.97;;;;;;;;;;4951295;28;20687;-73
2022/07/31 09:16:07;;;;;;;3.70;2.65;;;;;;;;;;4948284;28;20329;-73
2022/07/31 09:18:37;;;;;;;4.53;2.70;;;;;;;;;;4945617;29;20222;-73
2022/07/31 09:21:07;;;;;;;5.22;3.00;;;;;;;;;;4946324;28;20636;-74
2022/07/31 09:23:44;;;;;;;2.90;2.60;;;;;;;;;;4948161;28;20652;-74
2022/07/31 09:26:12;;;;;;;3.20;2.90;;;;;;;;;;4945722;28;20242;-74
2022/07/31 09:28:42;;;;;;;3.80;2.50;;;;;;;;;;4955493;28;20226;-74
2022/07/31 09:31:12;;;;;;;2.75;2.50;;;;;;;;;;4940825;28;20227;-74
2022/07/31 09:33:44;;;;;;;4.38;2.90;;;;;;;;;;4943033;29;20645;-74
2022/07/31 09:36:13;;;;;;;4.70;2.67;;;;;;;;;;4947232;28;20214;-74
2022/07/31 09:38:43;;;;;;;3.30;2.63;;;;;;;;;;4943364;28;20230;-74
2022/07/31 09:41:12;;;;;;;4.68;2.60;;;;;;;;;;4946979;28;20206;-74
2022/07/31 09:44:02;;;;;;;2.78;2.42;;;;;;;;;;4947563;28;20258;-74
2022/07/31 09:46:41;;;;;;;4.40;2.60;;;;;;;;;;4945380;28;20666;-74
2022/07/31 09:49:11;;;;;;;4.45;2.55;;;;;;;;;;4947010;28;20210;-74
2022/07/31 09:51:40;;;;;;;4.43;2.30;;;;;;;;;;4953945;29;20214;-74
2022/07/31 09:54:20;;;;;;;3.47;2.20;;;;;;;;;;4946743;28;20221;-74
2022/07/31 09:56:49;;;;;;;3.05;2.33;;;;;;;;;;4946731;29;20222;-74
2022/07/31 09:59:17;;;;;;;2.92;2.22;;;;;;;;;;4946324;28;20210;-74
2022/07/31 10:01:47;;;;;;;2.50;2.20;;;;;;;;;;4947515;28;20206;-74
2022/07/31 10:04:18;;;;;;;3.90;2.30;;;;;;;;;;4950609;29;20225;-74
2022/07/31 10:06:47;;;;;;;2.72;2.22;;;;;;;;;;4950450;28;20198;-74
2022/07/31 10:09:17;;;;;;;2.92;2.33;;;;;;;;;;4948758;28;20206;-75
2022/07/31 10:11:47;;;;;;;2.33;2.10;;;;;;;;;;4945360;29;20603;-74
2022/07/31 10:14:18;;;;;;;5.05;2.45;;;;;;;;;;4944943;29;20703;-74
2022/07/31 10:16:47;;;;;;;2.38;2.17;;;;;;;;;;4945539;28;20225;-74
2022/07/31 10:19:18;;;;;;;4.00;2.53;;;;;;;;;;4947397;28;20207;-74
2022/07/31 10:21:51;;;;;;;2.70;2.50;;;;;;;;;;4939762;28;20301;-74
2022/07/31 10:24:21;;;;;;;3.05;2.30;;;;;;;;;;4944575;28;20652;-72
2022/07/31 10:26:57;;;;;;;3.63;2.58;;;;;;;;;;4946517;28;20213;-73
2022/07/31 10:29:31;;;;;;;5.05;2.28;;;;;;;;;;4940543;29;21496;-72
2022/07/31 10:32:00;;;;;;;2.95;2.58;;;;;;;;;;4945664;29;20233;-72
2022/07/31 10:34:31;;;;;;;3.65;2.22;;;;;;;;;;4945830;28;20207;-73
2022/07/31 10:37:04;;;;;;;4.47;2.40;;;;;;;;;;4950663;29;20245;-72
2022/07/31 10:39:42;;;;;;;4.97;2.60;;;;;;;;;;4948560;28;20205;-72
2022/07/31 10:42:15;;;;;;;3.15;2.58;;;;;;;;;;4952990;29;20210;-72
2022/07/31 10:44:46;;;;;;;4.18;2.60;;;;;;;;;;4947788;28;22124;-72
2022/07/31 10:47:14;;;;;;;3.13;2.35;;;;;;;;;;4945850;28;20703;-73
2022/07/31 10:49:47;;;;;;;3.65;2.60;;;;;;;;;;4944389;28;20254;-73
2022/07/31 10:52:15;;;;;;;3.30;2.60;;;;;;;;;;4948759;28;20221;-73
2022/07/31 10:54:45;;;;;;;3.50;2.58;;;;;;;;;;4944737;28;20217;-75
2022/07/31 10:57:21;;;;;;;5.80;2.55;;;;;;;;;;4943808;29;20226;-75
2022/07/31 11:00:05;;;;;;;3.20;2.45;;;;;;;;;;4952120;29;20209;-75
2022/07/31 11:02:34;;;;;;;4.22;2.70;;;;;;;;;;4947918;28;20206;-73
2022/07/31 11:05:14;;;;;;;3.45;2.65;;;;;;;;;;4945524;29;20672;-73
2022/07/31 11:07:43;;;;;;;3.40;2.70;;;;;;;;;;4940656;29;20218;-73
2022/07/31 11:10:12;;;;;;;2.83;2.50;;;;;;;;;;4953310;28;20210;-73
2022/07/31 11:12:41;;;;;;;2.90;2.70;;;;;;;;;;4951034;28;20581;-73
2022/07/31 11:15:23;;;;;;;2.67;2.47;;;;;;;;;;4951572;29;20206;-74
2022/07/31 11:17:52;;;;;;;2.70;2.50;;;;;;;;;;4947631;28;20569;-73
2022/07/31 11:20:45;;;;;;;3.53;2.72;;;;;;;;;;4945415;29;20211;-73
2022/07/31 11:23:15;;;;;;;2.60;2.40;;;;;;;;;;4952861;29;20207;-73
2022/07/31 11:25:44;;;;;;;3.20;2.60;;;;;;;;;;4944521;28;20207;-72
2022/07/31 11:28:17;;;;;;;4.60;2.58;;;;;;;;;;4947536;28;20297;-72
2022/07/31 11:30:49;;;;;;;4.22;2.60;;;;;;;;;;4945381;29;20216;-73
2022/07/31 11:33:31;;;;;;;3.50;2.88;;;;;;;;;;4952465;28;20602;-73
2022/07/31 11:36:12;;;;;;;3.63;2.55;;;;;;;;;;4953907;28;20219;-73
2022/07/31 11:38:42;;;;;;;2.80;2.42;;;;;;;;;;4951808;28;20226;-72
2022/07/31 11:41:14;;;;;;;3.38;2.38;;;;;;;;;;4953727;29;20214;-73
2022/07/31 11:43:44;;;;;;;3.20;2.47;;;;;;;;;;4951410;28;20293;-73
2022/07/31 11:46:15;;;;;;;4.65;2.40;;;;;;;;;;4946513;29;20206;-73
2022/07/31 11:48:43;;;;;;;3.83;2.55;;;;;;;;;;4951364;28;20226;-73
2022/07/31 11:51:19;;;;;;;5.07;2.58;;;;;;;;;;4957170;28;20237;-73
2022/07/31 11:53:48;;;;;;;3.00;2.30;;;;;;;;;;4954405;29;20627;-73
2022/07/31 11:56:25;;;;;;;4.32;2.45;;;;;;;;;;4952337;28;20246;-73
2022/07/31 11:58:54;;;;;;;2.65;2.13;;;;;;;;;;4956757;28;20634;-73
2022/07/31 12:01:25;;;;;;;4.18;1.98;;;;;;;;;;4951678;28;20585;-73
2022/07/31 12:03:54;;;;;;;3.05;2.20;;;;;;;;;;4956209;28;20202;-73
2022/07/31 12:06:24;;;;;;;4.35;2.30;;;;;;;;;;4940078;28;20274;-73
2022/07/31 12:09:03;;;;;;;3.08;2.10;;;;;;;;;;4956879;29;20227;-73
2022/07/31 12:11:32;;;;;;;3.00;2.20;;;;;;;;;;4940932;28;20649;-72
2022/07/31 12:14:00;;;;;;;3.33;2.40;;;;;;;;;;4958441;29;20210;-73
2022/07/31 12:16:39;;;;;;;2.30;2.10;;;;;;;;;;4956487;28;20230;-72
2022/07/31 12:19:07;;;;;;;2.30;2.10;;;;;;;;;;4942239;29;20210;-73
2022/07/31 12:21:39;;;;;;;3.45;2.30;;;;;;;;;;4946453;29;20301;-73
2022/07/31 12:24:11;;;;;;;4.00;2.45;;;;;;;;;;4943154;28;20214;-73
2022/07/31 12:26:43;;;;;;;4.32;2.55;;;;;;;;;;4941277;28;20215;-73
2022/07/31 12:29:13;;;;;;;3.03;2.40;;;;;;;;;;4946394;28;20251;-73
2022/07/31 12:31:45;;;;;;;4.40;2.47;;;;;;;;;;4946454;28;20206;-73
2022/07/31 12:34:14;;;;;;;3.35;3.00;;;;;;;;;;4949152;28;20610;-73
2022/07/31 12:36:44;;;;;;;2.95;2.72;;;;;;;;;;4953200;28;20233;-72
2022/07/31 12:39:12;;;;;;;3.25;2.88;;;;;;;;;;4954282;28;20657;-72
2022/07/31 12:41:42;;;;;;;3.70;2.80;;;;;;;;;;4947347;29;20599;-73
2022/07/31 12:44:11;;;;;;;3.20;2.90;;;;;;;;;;4944795;29;20198;-74
2022/07/31 12:46:50;;;;;;;3.30;3.00;;;;;;;;;;4945411;28;20737;-73
2022/07/31 12:49:19;;;;;;;5.10;3.08;;;;;;;;;;4945613;28;20211;-73
2022/07/31 12:52:02;;;;;;;3.83;2.70;;;;;;;;;;4949166;29;20242;-75
2022/07/31 12:54:33;;;;;;;4.43;3.10;;;;;;;;;;4943394;28;20207;-73
2022/07/31 12:57:06;;;;;;;3.38;3.00;;;;;;;;;;4953484;28;20273;-73
2022/07/31 12:59:35;;;;;;;3.50;3.00;;;;;;;;;;4946941;28;20210;-73
2022/07/31 13:02:04;;;;;;;5.13;3.03;;;;;;;;;;4952730;28;20203;-73
2022/07/31 13:04:34;;;;;;;3.97;3.42;;;;;;;;;;4954979;28;20233;-73
2022/07/31 13:07:03;;;;;;;3.42;3.05;;;;;;;;;;4954007;28;20250;-73
2022/07/31 13:09:33;;;;;;;3.72;3.38;;;;;;;;;;4946577;28;20245;-73
2022/07/31 13:12:02;;;;;;;3.13;2.83;;;;;;;;;;4947672;28;20254;-73
2022/07/31 13:14:32;;;;;;;5.53;3.17;;;;;;;;;;4948599;28;20214;-74
2022/07/31 13:17:00;;;;;;;3.35;3.05;;;;;;;;;;4952230;28;20229;-73
2022/07/31 13:22:13;;;;;;;3.70;3.10;;;;;;;;;;4950467;28;20624;-74
2022/07/31 13:24:44;;;;;;;5.13;3.35;;;;;;;;;;4952301;28;20202;-74
2022/07/31 13:27:13;;;;;;;4.55;3.50;;;;;;;;;;4954947;28;20226;-75
2022/07/31 13:29:41;;;;;;;3.53;3.22;;;;;;;;;;4950590;29;20206;-74
2022/07/31 13:32:10;;;;;;;5.63;3.60;;;;;;;;;;4953245;28;20229;-74
2022/07/31 13:34:39;;;;;;;3.97;3.58;;;;;;;;;;4953084;28;20206;-74
2022/07/31 13:37:07;;;;;;;4.55;3.45;;;;;;;;;;4948700;29;20239;-74
2022/07/31 13:39:36;;;;;;;6.63;3.65;;;;;;;;;;4952115;28;20293;-73
2022/07/31 13:42:06;;;;;;;4.70;3.55;;;;;;;;;;4959723;28;20906;-74
2022/07/31 13:44:36;;;;;;;5.07;3.40;;;;;;;;;;4958479;28;20558;-73
2022/07/31 13:47:04;;;;;;;3.72;3.30;;;;;;;;;;4948238;28;20222;-73
2022/07/31 13:49:33;;;;;;;3.72;2.83;;;;;;;;;;4943469;28;20213;-74
2022/07/31 13:52:01;;;;;;;3.50;2.90;;;;;;;;;;4943281;28;20219;-74
2022/07/31 13:54:30;;;;;;;4.13;2.90;;;;;;;;;;4949058;28;20289;-73
2022/07/31 13:56:59;;;;;;;2.97;2.33;;;;;;;;;;4953634;28;20230;-73
2022/07/31 13:59:29;;;;;;;4.93;2.47;;;;;;;;;;4952350;28;20214;-74
2022/07/31 14:01:59;;;;;;;2.67;2.47;;;;;;;;;;4953175;28;20210;-73
2022/07/31 14:04:32;;;;;;;2.53;2.10;;;;;;;;;;4953772;28;20731;-74
2022/07/31 14:07:07;;;;;;;2.30;2.17;;;;;;;;;;4939159;29;20722;-74
2022/07/31 14:09:36;;;;;;;2.45;2.15;;;;;;;;;;4944921;28;20577;-73
2022/07/31 14:12:05;;;;;;;2.40;2.20;;;;;;;;;;4956009;28;21699;-73
2022/07/31 14:14:36;;;;;;;4.15;2.15;;;;;;;;;;4951108;28;20289;-75
2022/07/31 14:17:04;;;;;;;2.25;2.00;;;;;;;;;;4949863;28;20230;-74
2022/07/31 14:19:33;;;;;;;2.28;1.90;;;;;;;;;;4959749;28;20202;-74
2022/07/31 14:22:12;;;;;;;1.90;1.80;;;;;;;;;;4949682;28;20583;-74
2022/07/31 14:24:41;;;;;;;2.70;2.30;;;;;;;;;;4951855;28;20286;-76
2022/07/31 14:27:18;;;;;;;2.50;2.30;;;;;;;;;;4952153;28;20234;-75
2022/07/31 14:29:48;;;;;;;3.03;2.70;;;;;;;;;;4955742;28;20198;-75
2022/07/31 14:32:18;;;;;;;3.72;2.90;;;;;;;;;;4955901;28;20195;-75
2022/07/31 14:34:46;;;;;;;2.60;2.40;;;;;;;;;;4956437;28;20301;-76
2022/07/31 14:37:15;;;;;;;2.70;2.50;;;;;;;;;;4955901;28;20618;-75
2022/07/31 14:39:44;;;;;;;5.68;2.72;;;;;;;;;;4955979;28;20222;-75
2022/07/31 14:42:13;;;;;;;3.88;2.90;;;;;;;;;;4956028;28;20235;-76
2022/07/31 14:44:51;;;;;;;2.90;2.70;;;;;;;;;;4955943;29;20214;-75
2022/07/31 14:47:20;;;;;;;2.90;2.70;;;;;;;;;;4955260;28;20222;-74
2022/07/31 14:49:48;;;;;;;3.30;2.60;;;;;;;;;;4954730;28;20679;-75
2022/07/31 14:52:37;;;;;;;3.63;2.63;;;;;;;;;;4950047;28;20278;-76
2022/07/31 14:55:06;;;;;;;3.35;2.00;;;;;;;;;;4935335;29;20211;-75